Terminal Aerodrome Forecast
Issued by NWS

Home | Current Version | Previous Version | Text Only | Print | Product List | Glossary On
Versions: 1 2 3 4 5 6 7 8 9 10 11 12 13 14 15 16 17 18
000
FTUS41 KBGM 222322
TAFELM
TAF
KELM 222322Z 2300/2324 VRB03KT P6SM SCT150
      TEMPO 2307/2309 2SM BR
     FM230900 00000KT 2SM BR FEW200
      TEMPO 2309/2311 1SM BR
     FM231200 00000KT 6SM BR SCT025
     FM231300 00000KT P6SM SCT200=

USA.gov is the U.S. government's official web portal to all federal, state and local government web resources and services.